createdAt,value
2023-08-17T00:02:29.598Z,3.40
2023-08-17T00:07:34.824Z,3.78
2023-08-17T00:12:38.568Z,5.53
2023-08-17T00:17:42.840Z,5.40
2023-08-17T00:22:47.978Z,3.53
2023-08-17T00:27:51.706Z,9.20
2023-08-17T00:32:55.533Z,3.90
2023-08-17T00:38:01.426Z,6.07
2023-08-17T00:43:05.983Z,4.68
2023-08-17T00:48:10.953Z,4.85
2023-08-17T00:53:17.386Z,7.12
2023-08-17T00:58:22.225Z,4.90
2023-08-17T01:03:28.491Z,3.75
2023-08-17T01:08:33.884Z,3.65
2023-08-17T01:13:44.702Z,4.12
2023-08-17T01:18:49.910Z,5.25
2023-08-17T01:24:00.215Z,3.75
2023-08-17T01:29:04.881Z,9.10
2023-08-17T01:34:13.338Z,6.90
2023-08-17T01:39:19.444Z,3.95
2023-08-17T01:44:23.312Z,6.70
2023-08-17T01:49:28.491Z,6.00
2023-08-17T01:54:33.772Z,6.12
2023-08-17T01:59:37.530Z,5.05
2023-08-17T02:04:41.277Z,5.87
2023-08-17T02:09:47.039Z,5.40
2023-08-17T02:14:50.772Z,2.97
2023-08-17T02:19:54.574Z,4.93
2023-08-17T02:24:59.697Z,5.57
2023-08-17T02:30:03.640Z,2.85
2023-08-17T02:35:08.799Z,4.43
2023-08-17T02:40:14.329Z,3.65
2023-08-17T02:45:18.136Z,9.30
2023-08-17T02:50:21.889Z,2.62
2023-08-17T02:55:26.973Z,4.47
2023-08-17T03:00:30.706Z,3.60
2023-08-17T03:05:36.187Z,6.57
2023-08-17T03:10:41.302Z,3.60
2023-08-17T03:15:45.067Z,7.15
2023-08-17T03:20:48.910Z,4.05
2023-08-17T03:25:55.426Z,3.90
2023-08-17T03:30:59.678Z,4.65
2023-08-17T03:36:03.901Z,3.90
2023-08-17T03:41:09.825Z,6.47
2023-08-17T03:46:13.908Z,7.12
2023-08-17T03:51:17.831Z,5.25
2023-08-17T03:56:22.976Z,8.73
2023-08-17T04:01:26.798Z,7.40
2023-08-17T04:06:31.729Z,8.82
2023-08-17T04:11:38.522Z,6.43
2023-08-17T04:16:42.562Z,3.25
2023-08-17T04:21:46.376Z,4.47
2023-08-17T04:26:51.777Z,4.60
2023-08-17T04:31:55.769Z,4.30
2023-08-17T04:36:59.708Z,6.70
2023-08-17T04:42:06.594Z,4.62
2023-08-17T04:47:11.447Z,4.57
2023-08-17T04:52:15.542Z,6.72
2023-08-17T04:57:21.523Z,4.80
2023-08-17T05:02:25.700Z,4.05
2023-08-17T05:07:30.255Z,4.32
2023-08-17T05:12:35.874Z,8.18
2023-08-17T05:17:40.122Z,4.93
2023-08-17T05:22:45.610Z,7.25
2023-08-17T05:27:51.208Z,5.87
2023-08-17T05:32:55.120Z,6.35
2023-08-17T05:37:59.095Z,7.20
2023-08-17T05:43:04.473Z,6.43
2023-08-17T05:48:08.644Z,5.32
2023-08-17T05:53:12.410Z,5.47
2023-08-17T05:58:17.503Z,4.80
2023-08-17T06:03:21.549Z,5.03
2023-08-17T06:08:25.319Z,10.68
2023-08-17T06:13:30.588Z,5.35
2023-08-17T06:18:34.376Z,7.18
2023-08-17T06:23:38.080Z,6.72
2023-08-17T06:28:43.222Z,6.35
2023-08-17T06:33:47.393Z,5.12
2023-08-17T06:38:51.146Z,3.78
2023-08-17T06:43:56.256Z,6.00
2023-08-17T06:49:00.044Z,4.30
2023-08-17T06:54:03.782Z,5.93
2023-08-17T06:59:09.024Z,8.77
2023-08-17T07:04:12.832Z,8.35
2023-08-17T07:09:16.620Z,6.70
2023-08-17T07:14:22.948Z,10.05
2023-08-17T07:19:48.696Z,10.25
2023-08-17T07:24:50.897Z,4.10
2023-08-17T07:29:56.162Z,6.25
2023-08-17T07:34:59.922Z,5.78
2023-08-17T07:40:05.323Z,6.00
2023-08-17T07:45:11.473Z,6.35
2023-08-17T07:50:15.318Z,4.53
2023-08-17T07:55:19.085Z,9.50
2023-08-17T08:00:24.224Z,8.23
2023-08-17T08:05:28.221Z,5.28
2023-08-17T08:10:32.025Z,3.72
2023-08-17T08:15:37.244Z,6.32
2023-08-17T08:20:40.965Z,7.72
2023-08-17T08:25:44.717Z,10.88
2023-08-17T08:30:49.845Z,9.65
2023-08-17T08:35:53.788Z,5.68
2023-08-17T08:40:57.563Z,5.95
2023-08-17T08:46:03.689Z,11.60
2023-08-17T08:51:10.585Z,4.55
2023-08-17T08:56:14.994Z,6.97
2023-08-17T09:01:20.356Z,5.85
2023-08-17T09:06:27.535Z,6.55
2023-08-17T09:11:31.291Z,10.23
2023-08-17T09:16:36.544Z,8.93
2023-08-17T09:21:40.274Z,9.00
2023-08-17T09:26:44.120Z,13.52
2023-08-17T09:31:49.493Z,8.98
2023-08-17T09:36:53.237Z,7.87
2023-08-17T09:41:57.328Z,9.30
2023-08-17T09:47:03.010Z,9.13
2023-08-17T09:52:07.245Z,6.30
2023-08-17T09:57:12.008Z,10.40
2023-08-17T10:02:21.140Z,7.85
2023-08-17T10:07:34.298Z,7.62
2023-08-17T10:12:39.521Z,11.77
2023-08-17T10:17:53.395Z,11.45
2023-08-17T10:23:07.459Z,7.55
2023-08-17T10:28:12.163Z,13.88
2023-08-17T10:33:18.189Z,9.80
2023-08-17T10:38:22.032Z,11.00
2023-08-17T10:43:35.247Z,13.15
2023-08-17T10:48:40.432Z,10.43
2023-08-17T10:53:46.004Z,10.82
2023-08-17T10:58:53.906Z,14.98
2023-08-17T11:04:13.651Z,12.30
2023-08-17T11:09:19.762Z,10.27
2023-08-17T11:14:23.564Z,11.68
2023-08-17T11:19:28.802Z,18.23
2023-08-17T11:24:33.359Z,11.02
2023-08-17T11:29:37.598Z,11.38
2023-08-17T11:34:42.853Z,12.60
2023-08-17T11:39:46.606Z,17.73
2023-08-17T11:44:51.083Z,13.43
2023-08-17T11:50:14.755Z,13.68
2023-08-17T11:55:23.203Z,13.07
2023-08-17T12:00:27.087Z,9.80
2023-08-17T12:05:34.368Z,13.93
2023-08-17T12:10:39.609Z,11.63
2023-08-17T12:15:44.270Z,20.00
2023-08-17T12:20:54.886Z,16.08
2023-08-17T12:25:58.918Z,13.00
2023-08-17T12:31:04.394Z,21.45
2023-08-17T12:36:10.273Z,14.25
2023-08-17T12:41:14.207Z,16.42
2023-08-17T12:46:18.072Z,13.82
2023-08-17T12:51:23.193Z,21.25
2023-08-17T12:56:26.995Z,11.30
2023-08-17T13:01:30.879Z,16.20
2023-08-17T13:06:44.167Z,10.70
2023-08-17T13:11:51.658Z,13.07
2023-08-17T13:16:55.494Z,16.73
2023-08-17T13:22:00.668Z,11.50
2023-08-17T13:27:04.905Z,13.82
2023-08-17T13:32:08.626Z,9.60
2023-08-17T13:37:13.818Z,14.25
2023-08-17T13:42:17.566Z,13.38
2023-08-17T13:47:21.452Z,9.85
2023-08-17T13:52:26.963Z,11.27
2023-08-17T13:57:31.151Z,13.68
2023-08-17T14:02:35.192Z,17.30
2023-08-17T14:07:40.702Z,12.07
2023-08-17T14:12:44.419Z,13.40
2023-08-17T14:17:48.155Z,13.32
2023-08-17T14:22:53.275Z,14.07
2023-08-17T14:27:57.041Z,13.93
2023-08-17T14:33:01.357Z,13.82
2023-08-17T14:38:08.766Z,13.95
2023-08-17T14:43:14.784Z,18.00
2023-08-17T14:48:22.377Z,13.65
2023-08-17T14:58:31.397Z,14.32
2023-08-17T15:03:35.472Z,13.57
2023-08-17T15:08:40.674Z,11.90
2023-08-17T15:13:44.934Z,16.40
2023-08-17T15:18:48.683Z,15.85
2023-08-17T15:23:53.873Z,16.73
2023-08-17T15:28:57.616Z,16.42
2023-08-17T15:34:01.430Z,12.32
2023-08-17T15:39:07.071Z,12.60
2023-08-17T15:44:11.024Z,19.52
2023-08-17T15:49:14.748Z,13.40
2023-08-17T15:54:33.483Z,11.07
2023-08-17T15:59:40.928Z,16.75
2023-08-17T16:04:44.684Z,17.70
2023-08-17T16:09:49.747Z,16.85
2023-08-17T16:14:53.520Z,17.98
2023-08-17T16:19:57.274Z,11.45
2023-08-17T16:25:02.462Z,11.00
2023-08-17T16:30:07.664Z,16.20
2023-08-17T16:35:11.474Z,13.48
2023-08-17T16:40:31.926Z,15.35
2023-08-17T16:45:40.407Z,10.75
2023-08-17T16:50:44.552Z,14.63
2023-08-17T16:55:55.084Z,15.32
2023-08-17T17:00:59.378Z,18.42
2023-08-17T17:06:03.350Z,56.65
2023-08-17T17:11:09.398Z,17.58
2023-08-17T17:16:13.219Z,13.38
2023-08-17T17:21:17.007Z,14.63
2023-08-17T17:26:22.448Z,14.48
2023-08-17T17:31:26.229Z,19.40
2023-08-17T17:36:30.190Z,16.10
2023-08-17T17:41:35.257Z,18.92
2023-08-17T17:46:39.099Z,16.08
2023-08-17T17:51:42.843Z,13.43
2023-08-17T17:56:48.380Z,12.63
2023-08-17T18:01:52.157Z,13.62
2023-08-17T18:06:55.929Z,11.70
2023-08-17T18:12:00.981Z,15.10
2023-08-17T18:17:04.837Z,18.00
2023-08-17T18:22:08.583Z,14.85
2023-08-17T18:27:13.737Z,13.75
2023-08-17T18:32:17.531Z,14.20
2023-08-17T18:37:21.438Z,13.13
2023-08-17T18:42:27.789Z,18.45
2023-08-17T18:47:31.705Z,14.05
2023-08-17T18:52:35.988Z,14.38
2023-08-17T18:57:42.156Z,13.00
2023-08-17T19:02:45.945Z,12.65
2023-08-17T19:07:49.699Z,12.80
2023-08-17T19:12:54.984Z,13.13
2023-08-17T19:17:58.817Z,14.93
2023-08-17T19:23:02.561Z,17.92
2023-08-17T19:28:09.190Z,13.93
2023-08-17T19:33:12.997Z,12.02
2023-08-17T19:38:16.738Z,14.30
2023-08-17T19:43:21.774Z,12.73
2023-08-17T19:48:25.553Z,12.15
2023-08-17T19:53:29.279Z,11.43
2023-08-17T19:58:34.397Z,12.90
2023-08-17T20:03:38.263Z,12.20
2023-08-17T20:08:42.110Z,16.15
2023-08-17T20:13:47.601Z,19.65
2023-08-17T20:18:51.988Z,19.67
2023-08-17T20:23:55.749Z,14.07
2023-08-17T20:29:00.859Z,21.20
2023-08-17T20:34:04.618Z,14.63
2023-08-17T20:39:09.245Z,17.23
2023-08-17T20:44:15.256Z,17.48
2023-08-17T20:49:19.027Z,19.55
2023-08-17T20:54:23.514Z,19.30
2023-08-17T20:59:28.834Z,19.02
2023-08-17T21:04:32.824Z,22.52
2023-08-17T21:09:36.606Z,20.65
2023-08-17T21:14:41.666Z,23.98
2023-08-17T21:19:45.454Z,21.23
2023-08-17T21:24:49.235Z,23.87
2023-08-17T21:29:54.357Z,21.50
2023-08-17T21:34:58.139Z,22.60
2023-08-17T21:40:01.892Z,21.35
2023-08-17T21:45:08.165Z,25.35
2023-08-17T21:50:12.845Z,24.90
2023-08-17T21:55:16.799Z,24.77
2023-08-17T22:00:21.956Z,23.40
2023-08-17T22:05:25.691Z,21.42
2023-08-17T22:10:29.468Z,22.65
2023-08-17T22:15:34.593Z,24.00
2023-08-17T22:20:41.111Z,22.73
2023-08-17T22:25:45.517Z,24.65
2023-08-17T22:30:50.689Z,21.05
2023-08-17T22:35:54.462Z,26.05
2023-08-17T22:40:58.237Z,21.20
2023-08-17T22:46:05.067Z,20.95
2023-08-17T22:51:10.323Z,21.00
2023-08-17T22:56:14.068Z,20.40
2023-08-17T23:01:19.246Z,21.37
2023-08-17T23:06:23.091Z,20.80
2023-08-17T23:11:26.833Z,20.40
2023-08-17T23:16:32.007Z,23.92
2023-08-17T23:21:35.881Z,21.27
2023-08-17T23:26:39.621Z,18.95
2023-08-17T23:31:44.906Z,21.00
2023-08-17T23:36:48.709Z,17.98
2023-08-17T23:41:52.446Z,24.12
2023-08-17T23:46:57.595Z,17.62
2023-08-17T23:52:01.744Z,15.00
2023-08-17T23:57:05.861Z,15.05
